createdAt,value
2022-12-18T00:01:32.569Z,-10.80
2022-12-18T00:04:00.552Z,-10.90
2022-12-18T00:06:29.758Z,-11.00
2022-12-18T00:08:59.127Z,-11.00
2022-12-18T00:11:29.423Z,-11.00
2022-12-18T00:13:58.678Z,-11.00
2022-12-18T00:16:27.492Z,-11.00
2022-12-18T00:19:00.348Z,-10.90
2022-12-18T00:21:30.314Z,-10.90
2022-12-18T00:23:57.854Z,-10.90
2022-12-18T00:26:27.807Z,-10.90
2022-12-18T00:28:56.859Z,-11.00
2022-12-18T00:31:25.751Z,-10.90
2022-12-18T00:33:58.497Z,-11.00
2022-12-18T00:36:28.442Z,-11.00
2022-12-18T00:38:57.391Z,-11.00
2022-12-18T00:41:44.202Z,-11.00
2022-12-18T00:44:14.580Z,-11.00
2022-12-18T00:46:42.971Z,-11.00
2022-12-18T00:49:13.597Z,-11.00
2022-12-18T00:51:40.934Z,-10.90
2022-12-18T00:54:08.129Z,-10.90
2022-12-18T00:56:45.775Z,-10.90
2022-12-18T00:59:17.943Z,-10.90
2022-12-18T01:01:46.136Z,-10.90
2022-12-18T01:04:13.411Z,-10.90
2022-12-18T01:06:41.065Z,-10.90
2022-12-18T01:09:08.302Z,-10.90
2022-12-18T01:11:35.513Z,-10.90
2022-12-18T01:14:02.688Z,-10.90
2022-12-18T01:16:29.986Z,-10.90
2022-12-18T01:18:57.384Z,-10.90
2022-12-18T01:21:25.283Z,-10.90
2022-12-18T01:23:54.566Z,-10.90
2022-12-18T01:26:22.246Z,-10.90
2022-12-18T01:28:49.735Z,-10.90
2022-12-18T01:31:24.027Z,-10.90
2022-12-18T01:33:52.609Z,-10.90
2022-12-18T01:36:24.296Z,-10.90
2022-12-18T01:38:52.164Z,-10.90
2022-12-18T01:41:23.464Z,-10.90
2022-12-18T01:43:50.692Z,-10.90
2022-12-18T01:46:20.291Z,-10.90
2022-12-18T01:48:50.860Z,-10.90
2022-12-18T01:51:17.993Z,-10.90
2022-12-18T01:53:46.469Z,-10.90
2022-12-18T01:56:16.571Z,-10.90
2022-12-18T01:59:03.973Z,-11.00
2022-12-18T02:01:32.596Z,-11.00
2022-12-18T02:04:23.782Z,-11.10
2022-12-18T02:07:01.107Z,-11.20
2022-12-18T02:09:41.199Z,-11.20
2022-12-18T02:12:22.410Z,-11.20
2022-12-18T02:15:15.811Z,-11.20
2022-12-18T02:18:00.895Z,-11.20
2022-12-18T02:20:31.105Z,-11.30
2022-12-18T02:23:27.541Z,-11.30
2022-12-18T02:26:00.507Z,-11.30
2022-12-18T02:28:32.316Z,-11.30
2022-12-18T02:31:04.252Z,-11.30
2022-12-18T02:33:33.253Z,-11.30
2022-12-18T02:36:02.401Z,-11.40
2022-12-18T02:38:31.610Z,-11.30
2022-12-18T02:40:59.899Z,-11.40
2022-12-18T02:43:27.022Z,-11.50
2022-12-18T02:45:58.462Z,-11.50
2022-12-18T02:48:31.663Z,-11.50
2022-12-18T02:51:24.592Z,-11.50
2022-12-18T02:54:15.857Z,-11.60
2022-12-18T02:56:52.243Z,-11.60
2022-12-18T02:59:25.186Z,-11.70
2022-12-18T03:02:06.099Z,-11.70
2022-12-18T03:05:10.412Z,-11.70
2022-12-18T03:08:02.313Z,-11.80
2022-12-18T03:10:33.295Z,-11.90
2022-12-18T03:13:17.422Z,-11.90
2022-12-18T03:15:50.615Z,-11.90
2022-12-18T03:18:30.726Z,-12.00
2022-12-18T03:21:01.682Z,-12.10
2022-12-18T03:23:35.113Z,-12.10
2022-12-18T03:26:19.132Z,-12.20
2022-12-18T03:28:54.764Z,-12.30
2022-12-18T03:31:25.112Z,-12.30
2022-12-18T03:33:59.358Z,-12.40
2022-12-18T03:36:26.791Z,-12.40
2022-12-18T03:38:54.087Z,-12.40
2022-12-18T03:41:35.158Z,-12.50
2022-12-18T03:44:13.846Z,-12.60
2022-12-18T03:46:49.789Z,-12.70
2022-12-18T03:49:27.559Z,-12.80
2022-12-18T03:52:05.900Z,-12.90
2022-12-18T03:54:34.790Z,-12.90
2022-12-18T03:57:16.340Z,-13.00
2022-12-18T03:59:46.495Z,-13.10
2022-12-18T04:02:14.886Z,-13.10
2022-12-18T04:04:44.280Z,-13.20
2022-12-18T04:07:13.026Z,-13.20
2022-12-18T04:09:41.186Z,-13.30
2022-12-18T04:12:10.115Z,-13.30
2022-12-18T04:14:37.318Z,-13.40
2022-12-18T04:17:04.809Z,-13.40
2022-12-18T04:19:32.099Z,-13.50
2022-12-18T04:21:59.272Z,-13.50
2022-12-18T04:24:26.794Z,-13.60
2022-12-18T04:26:54.024Z,-13.70
2022-12-18T04:29:21.159Z,-13.80
2022-12-18T04:31:48.381Z,-13.90
2022-12-18T04:34:15.641Z,-14.00
2022-12-18T04:36:42.768Z,-14.10
2022-12-18T04:39:10.210Z,-14.20
2022-12-18T04:41:37.357Z,-14.30
2022-12-18T04:44:05.021Z,-14.30
2022-12-18T04:46:32.282Z,-14.40
2022-12-18T04:48:59.592Z,-14.40
2022-12-18T04:51:27.058Z,-14.50
2022-12-18T04:53:54.667Z,-14.60
2022-12-18T04:56:22.432Z,-14.60
2022-12-18T04:58:49.722Z,-14.70
2022-12-18T05:01:18.962Z,-14.80
2022-12-18T05:03:46.642Z,-14.90
2022-12-18T05:06:13.820Z,-15.00
2022-12-18T05:08:41.207Z,-15.00
2022-12-18T05:11:11.127Z,-15.10
2022-12-18T05:13:39.548Z,-15.10
2022-12-18T05:16:07.710Z,-15.10
2022-12-18T05:18:35.408Z,-15.20
2022-12-18T05:21:02.940Z,-15.30
2022-12-18T05:23:30.442Z,-15.40
2022-12-18T05:26:00.091Z,-15.40
2022-12-18T05:28:29.505Z,-15.40
2022-12-18T05:30:59.327Z,-15.50
2022-12-18T05:33:29.607Z,-15.50
2022-12-18T05:35:59.451Z,-15.60
2022-12-18T05:38:28.309Z,-15.60
2022-12-18T05:40:56.430Z,-15.60
2022-12-18T05:43:24.571Z,-15.70
2022-12-18T05:45:52.632Z,-15.80
2022-12-18T05:48:20.211Z,-15.80
2022-12-18T05:50:48.959Z,-15.90
2022-12-18T05:53:18.070Z,-15.90
2022-12-18T05:55:45.816Z,-15.90
2022-12-18T05:58:14.304Z,-16.00
2022-12-18T06:00:44.018Z,-16.00
2022-12-18T06:03:12.815Z,-16.00
2022-12-18T06:05:42.332Z,-16.00
2022-12-18T06:08:10.061Z,-16.00
2022-12-18T06:10:37.445Z,-16.00
2022-12-18T06:13:05.158Z,-16.00
2022-12-18T06:15:32.570Z,-15.90
2022-12-18T06:17:59.787Z,-15.80
2022-12-18T06:20:31.833Z,-15.70
2022-12-18T06:23:00.502Z,-15.60
2022-12-18T06:25:27.639Z,-15.50
2022-12-18T06:27:55.059Z,-15.50
2022-12-18T06:30:22.286Z,-15.30
2022-12-18T06:32:53.172Z,-15.30
2022-12-18T06:35:23.568Z,-15.20
2022-12-18T06:37:50.891Z,-15.10
2022-12-18T06:40:18.388Z,-15.00
2022-12-18T06:42:45.572Z,-14.90
2022-12-18T06:45:12.792Z,-14.80
2022-12-18T06:47:40.075Z,-14.80
2022-12-18T06:50:08.096Z,-14.70
2022-12-18T06:52:35.397Z,-14.60
2022-12-18T06:55:02.536Z,-14.60
2022-12-18T06:57:30.013Z,-14.50
2022-12-18T06:59:57.101Z,-14.50
2022-12-18T07:02:24.424Z,-14.40
2022-12-18T07:04:51.615Z,-14.40
2022-12-18T07:07:19.037Z,-14.30
2022-12-18T07:09:46.223Z,-14.30
2022-12-18T07:12:13.405Z,-14.30
2022-12-18T07:14:40.526Z,-14.20
2022-12-18T07:17:07.788Z,-14.20
2022-12-18T07:19:35.498Z,-14.10
2022-12-18T07:22:03.130Z,-14.10
2022-12-18T07:24:31.703Z,-14.00
2022-12-18T07:26:58.935Z,-14.00
2022-12-18T07:29:26.124Z,-13.90
2022-12-18T07:31:53.370Z,-13.80
2022-12-18T07:34:20.545Z,-13.70
2022-12-18T07:36:47.667Z,-13.60
2022-12-18T07:39:14.991Z,-13.50
2022-12-18T07:41:47.504Z,-13.40
2022-12-18T07:44:14.944Z,-13.30
2022-12-18T07:46:42.064Z,-13.20
2022-12-18T07:49:09.295Z,-13.10
2022-12-18T07:51:36.503Z,-13.00
2022-12-18T07:54:03.820Z,-12.90
2022-12-18T07:56:31.654Z,-12.80
2022-12-18T07:59:00.384Z,-12.70
2022-12-18T08:01:27.852Z,-12.60
2022-12-18T08:03:55.298Z,-12.50
2022-12-18T08:06:24.267Z,-12.40
2022-12-18T08:08:55.983Z,-12.30
2022-12-18T08:11:25.127Z,-12.20
2022-12-18T08:13:52.687Z,-12.10
2022-12-18T08:16:20.798Z,-12.00
2022-12-18T08:18:48.502Z,-11.90
2022-12-18T08:21:21.446Z,-11.80
2022-12-18T08:23:49.762Z,-11.70
2022-12-18T08:26:19.053Z,-11.70
2022-12-18T08:28:46.711Z,-11.60
2022-12-18T08:31:14.079Z,-11.50
2022-12-18T08:33:42.306Z,-11.40
2022-12-18T08:36:11.266Z,-11.40
2022-12-18T08:38:38.495Z,-11.30
2022-12-18T08:41:08.942Z,-11.20
2022-12-18T08:43:54.183Z,-11.10
2022-12-18T08:46:23.181Z,-11.00
2022-12-18T08:48:52.560Z,-10.90
2022-12-18T08:51:20.585Z,-10.80
2022-12-18T08:53:48.533Z,-10.70
2022-12-18T08:56:16.306Z,-10.60
2022-12-18T08:58:43.742Z,-10.50
2022-12-18T09:01:13.364Z,-10.40
2022-12-18T09:03:41.284Z,-10.30
2022-12-18T09:06:09.542Z,-10.30
2022-12-18T09:08:38.322Z,-10.10
2022-12-18T09:11:05.815Z,-10.10
2022-12-18T09:13:33.074Z,-10.00
2022-12-18T09:16:00.287Z,-9.90
2022-12-18T09:18:27.527Z,-9.80
2022-12-18T09:20:54.720Z,-9.80
2022-12-18T09:23:22.937Z,-9.60
2022-12-18T09:25:50.031Z,-9.60
2022-12-18T09:28:19.097Z,-9.50
2022-12-18T09:30:50.201Z,-9.50
2022-12-18T09:33:18.349Z,-9.40
2022-12-18T09:35:46.608Z,-9.40
2022-12-18T09:38:16.473Z,-9.40
2022-12-18T09:40:47.593Z,-9.40
2022-12-18T09:43:31.708Z,-9.50
2022-12-18T09:46:04.389Z,-9.50
2022-12-18T09:48:38.461Z,-9.50
2022-12-18T09:51:20.984Z,-9.60
2022-12-18T09:53:56.602Z,-9.70
2022-12-18T09:56:26.160Z,-9.70
2022-12-18T09:58:58.583Z,-9.80
2022-12-18T10:01:34.044Z,-9.80
2022-12-18T10:04:10.051Z,-9.90
2022-12-18T10:06:52.216Z,-9.90
2022-12-18T10:09:47.181Z,-9.90
2022-12-18T10:12:17.414Z,-9.90
2022-12-18T10:15:28.855Z,-9.90
2022-12-18T10:18:14.997Z,-9.90
2022-12-18T10:21:00.118Z,-9.90
2022-12-18T10:23:48.397Z,-9.90
2022-12-18T10:26:16.344Z,-9.90
2022-12-18T10:28:44.857Z,-9.90
2022-12-18T10:31:24.313Z,-9.90
2022-12-18T10:33:52.528Z,-9.90
2022-12-18T10:36:20.130Z,-9.80
2022-12-18T10:38:47.371Z,-9.80
2022-12-18T10:41:21.775Z,-9.80
2022-12-18T10:43:49.470Z,-9.80
2022-12-18T10:46:20.959Z,-9.70
2022-12-18T10:48:48.160Z,-9.70
2022-12-18T10:51:35.061Z,-9.60
2022-12-18T10:54:06.234Z,-9.50
2022-12-18T10:56:37.174Z,-9.40
2022-12-18T10:59:09.710Z,-9.30
2022-12-18T11:01:55.231Z,-9.10
2022-12-18T11:04:30.858Z,-9.00
2022-12-18T11:07:05.270Z,-8.80
2022-12-18T11:09:37.032Z,-8.70
2022-12-18T11:12:26.569Z,-8.50
2022-12-18T11:14:58.959Z,-8.40
2022-12-18T11:17:33.704Z,-8.30
2022-12-18T11:20:03.507Z,-8.20
2022-12-18T11:22:33.616Z,-8.10
2022-12-18T11:25:36.167Z,-8.00
2022-12-18T11:28:01.814Z,-7.90
2022-12-18T11:30:35.576Z,-7.80
2022-12-18T11:33:29.135Z,-7.80
2022-12-18T11:36:05.007Z,-7.80
2022-12-18T11:38:44.570Z,-7.70
2022-12-18T11:41:54.401Z,-7.70
2022-12-18T11:44:40.128Z,-7.60
2022-12-18T11:47:23.023Z,-7.50
2022-12-18T11:49:51.660Z,-7.30
2022-12-18T11:52:42.980Z,-7.30
2022-12-18T11:55:16.367Z,-7.20
2022-12-18T11:58:04.186Z,-7.20
2022-12-18T12:00:31.834Z,-7.10
2022-12-18T12:03:19.849Z,-7.00
2022-12-18T12:06:21.812Z,-7.00
2022-12-18T12:09:10.256Z,-6.90
2022-12-18T12:12:02.195Z,-6.80
2022-12-18T12:14:49.097Z,-6.80
2022-12-18T12:17:19.352Z,-6.70
2022-12-18T12:20:11.514Z,-6.70
2022-12-18T12:23:11.529Z,-6.70
2022-12-18T12:25:46.102Z,-6.70
2022-12-18T12:28:35.117Z,-6.70
2022-12-18T12:31:11.138Z,-6.80
2022-12-18T12:33:47.248Z,-6.90
2022-12-18T12:36:17.234Z,-6.90
2022-12-18T12:38:51.844Z,-7.00
2022-12-18T12:41:42.564Z,-7.00
2022-12-18T12:44:16.457Z,-7.10
2022-12-18T12:46:45.303Z,-7.10
2022-12-18T12:49:19.973Z,-7.10
2022-12-18T12:52:15.187Z,-7.20
2022-12-18T12:54:43.192Z,-7.20
2022-12-18T12:57:28.150Z,-7.20
2022-12-18T13:00:12.973Z,-7.30
2022-12-18T13:03:02.137Z,-7.30
2022-12-18T13:05:42.152Z,-7.30
2022-12-18T13:08:11.584Z,-7.30
2022-12-18T13:10:41.962Z,-7.40
2022-12-18T13:13:13.526Z,-7.40
2022-12-18T13:15:48.509Z,-7.40
2022-12-18T13:18:17.547Z,-7.40
2022-12-18T13:21:04.118Z,-7.40
2022-12-18T13:23:33.820Z,-7.40
2022-12-18T13:26:24.717Z,-7.40
2022-12-18T13:28:57.161Z,-7.40
2022-12-18T13:31:42.800Z,-7.40
2022-12-18T13:34:29.504Z,-7.40
2022-12-18T13:37:19.760Z,-7.40
2022-12-18T13:39:47.259Z,-7.40
2022-12-18T13:42:34.877Z,-7.40
2022-12-18T13:45:02.445Z,-7.40
2022-12-18T13:47:41.421Z,-7.30
2022-12-18T13:50:29.728Z,-7.30
2022-12-18T13:53:01.263Z,-7.30
2022-12-18T13:55:28.511Z,-7.20
2022-12-18T13:58:06.583Z,-7.30
2022-12-18T14:00:34.711Z,-7.30
2022-12-18T14:03:02.464Z,-7.30
2022-12-18T14:05:33.042Z,-7.40
2022-12-18T14:08:02.823Z,-7.40
2022-12-18T14:10:48.464Z,-7.30
2022-12-18T14:13:28.010Z,-7.40
2022-12-18T14:15:55.517Z,-7.40
2022-12-18T14:18:41.047Z,-7.40
2022-12-18T14:21:16.910Z,-7.40
2022-12-18T14:23:45.721Z,-7.40
2022-12-18T14:26:24.785Z,-7.40
2022-12-18T14:28:52.395Z,-7.50
2022-12-18T14:31:27.642Z,-7.50
2022-12-18T14:33:55.552Z,-7.50
2022-12-18T14:36:28.919Z,-7.40
2022-12-18T14:38:58.331Z,-7.40
2022-12-18T14:41:27.012Z,-7.40
2022-12-18T14:43:55.783Z,-7.40
2022-12-18T14:46:28.689Z,-7.50
2022-12-18T14:48:57.151Z,-7.60
2022-12-18T14:51:30.930Z,-7.60
2022-12-18T14:54:01.955Z,-7.70
2022-12-18T14:56:35.164Z,-7.70
2022-12-18T14:59:05.197Z,-7.70
2022-12-18T15:01:45.644Z,-7.70
2022-12-18T15:04:32.810Z,-7.70
2022-12-18T15:07:11.948Z,-7.70
2022-12-18T15:09:40.994Z,-7.70
2022-12-18T15:12:27.284Z,-7.70
2022-12-18T15:14:54.557Z,-7.70
2022-12-18T15:17:24.688Z,-7.70
2022-12-18T15:20:00.084Z,-7.70
2022-12-18T15:22:34.082Z,-7.70
2022-12-18T15:25:02.077Z,-7.80
2022-12-18T15:27:32.828Z,-7.70
2022-12-18T15:30:12.148Z,-7.70
2022-12-18T15:32:43.485Z,-7.70
2022-12-18T15:35:10.934Z,-7.70
2022-12-18T15:37:42.052Z,-7.80
2022-12-18T15:40:17.372Z,-7.80
2022-12-18T15:43:11.570Z,-7.80
2022-12-18T15:45:38.861Z,-7.80
2022-12-18T15:48:33.602Z,-7.80
2022-12-18T15:51:01.169Z,-7.80
2022-12-18T15:53:34.632Z,-7.80
2022-12-18T15:56:20.250Z,-7.80
2022-12-18T15:58:47.455Z,-7.70
2022-12-18T16:01:15.338Z,-7.60
2022-12-18T16:03:42.968Z,-7.60
2022-12-18T16:06:11.580Z,-7.60
2022-12-18T16:08:38.894Z,-7.60
2022-12-18T16:11:17.503Z,-7.60
2022-12-18T16:13:45.521Z,-7.50
2022-12-18T16:16:13.231Z,-7.50
2022-12-18T16:18:40.418Z,-7.40
2022-12-18T16:21:09.373Z,-7.40
2022-12-18T16:23:36.543Z,-7.40
2022-12-18T16:26:03.800Z,-7.40
2022-12-18T16:28:31.013Z,-7.30
2022-12-18T16:30:58.276Z,-7.30
2022-12-18T16:33:25.531Z,-7.20
2022-12-18T16:35:53.740Z,-7.20
2022-12-18T16:38:21.128Z,-7.10
2022-12-18T16:41:07.028Z,-7.10
2022-12-18T16:43:34.346Z,-7.00
2022-12-18T16:46:01.915Z,-7.00
2022-12-18T16:48:29.172Z,-7.00
2022-12-18T16:51:05.577Z,-6.90
2022-12-18T16:53:33.809Z,-6.80
2022-12-18T16:56:02.975Z,-6.80
2022-12-18T16:58:31.918Z,-6.80
2022-12-18T17:01:00.220Z,-6.90
2022-12-18T17:03:27.912Z,-6.80
2022-12-18T17:05:55.175Z,-6.80
2022-12-18T17:08:22.325Z,-6.70
2022-12-18T17:10:49.685Z,-6.70
2022-12-18T17:13:20.224Z,-6.70
2022-12-18T17:15:50.183Z,-6.60
2022-12-18T17:18:17.367Z,-6.60
2022-12-18T17:20:45.313Z,-6.60
2022-12-18T17:23:12.840Z,-6.60
2022-12-18T17:25:43.734Z,-6.60
2022-12-18T17:28:12.602Z,-6.60
2022-12-18T17:30:42.553Z,-6.50
2022-12-18T17:33:09.858Z,-6.60
2022-12-18T17:35:37.372Z,-6.50
2022-12-18T17:38:04.742Z,-6.50
2022-12-18T17:40:34.215Z,-6.50
2022-12-18T17:43:01.530Z,-6.40
2022-12-18T17:45:29.062Z,-6.30
2022-12-18T17:47:59.944Z,-6.30
2022-12-18T17:50:28.531Z,-6.30
2022-12-18T17:52:59.484Z,-6.30
2022-12-18T17:55:28.200Z,-6.30
2022-12-18T17:57:55.862Z,-6.20
2022-12-18T18:00:23.174Z,-6.20
2022-12-18T18:02:50.658Z,-6.10
2022-12-18T18:05:18.003Z,-6.10
2022-12-18T18:07:45.294Z,-6.00
2022-12-18T18:10:12.696Z,-6.00
2022-12-18T18:12:58.615Z,-5.90
2022-12-18T18:15:25.768Z,-6.00
2022-12-18T18:17:53.099Z,-6.00
2022-12-18T18:20:22.822Z,-6.00
2022-12-18T18:22:50.163Z,-6.00
2022-12-18T18:25:17.645Z,-6.00
2022-12-18T18:27:45.720Z,-6.00
2022-12-18T18:30:15.146Z,-5.90
2022-12-18T18:32:42.365Z,-5.90
2022-12-18T18:35:24.659Z,-5.90
2022-12-18T18:37:57.230Z,-5.90
2022-12-18T18:40:24.470Z,-5.80
2022-12-18T18:42:55.921Z,-5.70
2022-12-18T18:45:23.117Z,-5.70
2022-12-18T18:47:50.310Z,-5.70
2022-12-18T18:50:17.572Z,-5.60
2022-12-18T18:52:44.661Z,-5.70
2022-12-18T18:55:18.689Z,-5.70
2022-12-18T18:57:52.843Z,-5.70
2022-12-18T19:00:20.285Z,-5.60
2022-12-18T19:02:48.419Z,-5.60
2022-12-18T19:05:15.970Z,-5.60
2022-12-18T19:07:43.226Z,-5.60
2022-12-18T19:10:10.586Z,-5.60
2022-12-18T19:12:56.162Z,-5.60
2022-12-18T19:15:23.371Z,-5.60
2022-12-18T19:17:50.719Z,-5.70
2022-12-18T19:20:18.410Z,-5.60
2022-12-18T19:22:46.985Z,-5.60
2022-12-18T19:25:38.225Z,-5.60
2022-12-18T19:28:13.498Z,-5.50
2022-12-18T19:30:49.078Z,-5.50
2022-12-18T19:36:19.796Z,-5.40
2022-12-18T19:38:48.077Z,-5.40
2022-12-18T19:41:16.083Z,-5.40
2022-12-18T19:43:43.940Z,-5.30
2022-12-18T19:46:14.751Z,-5.30
2022-12-18T19:48:43.833Z,-5.30
2022-12-18T19:51:18.274Z,-5.20
2022-12-18T19:53:45.976Z,-5.10
2022-12-18T19:56:16.391Z,-5.00
2022-12-18T19:58:45.172Z,-5.00
2022-12-18T20:01:13.986Z,-5.00
2022-12-18T20:03:48.490Z,-5.10
2022-12-18T20:06:34.553Z,-5.10
2022-12-18T20:09:06.054Z,-5.00
2022-12-18T20:11:36.375Z,-5.00
2022-12-18T20:14:12.860Z,-5.00
2022-12-18T20:16:40.963Z,-4.90
2022-12-18T20:19:08.859Z,-4.90
2022-12-18T20:21:37.304Z,-4.90
2022-12-18T20:24:04.755Z,-4.80
2022-12-18T20:26:32.023Z,-4.80
2022-12-18T20:28:59.470Z,-4.70
2022-12-18T20:31:26.785Z,-4.60
2022-12-18T20:34:00.323Z,-4.50
2022-12-18T20:36:30.614Z,-4.50
2022-12-18T20:39:00.569Z,-4.40
2022-12-18T20:41:38.529Z,-4.30
2022-12-18T20:44:09.838Z,-4.30
2022-12-18T20:46:56.726Z,-4.20
2022-12-18T20:49:25.327Z,-4.20
2022-12-18T20:51:54.583Z,-4.10
2022-12-18T20:54:22.533Z,-4.10
2022-12-18T20:56:50.044Z,-4.10
2022-12-18T20:59:17.807Z,-4.10
2022-12-18T21:01:48.063Z,-4.10
2022-12-18T21:04:18.002Z,-4.00
2022-12-18T21:06:50.975Z,-4.00
2022-12-18T21:09:19.622Z,-4.00
2022-12-18T21:12:05.300Z,-4.00
2022-12-18T21:14:32.883Z,-4.00
2022-12-18T21:17:03.201Z,-4.00
2022-12-18T21:19:30.697Z,-3.90
2022-12-18T21:21:58.022Z,-3.90
2022-12-18T21:24:25.810Z,-3.90
2022-12-18T21:26:55.427Z,-3.90
2022-12-18T21:29:26.439Z,-3.80
2022-12-18T21:31:55.009Z,-3.80
2022-12-18T21:34:25.739Z,-3.80
2022-12-18T21:36:54.208Z,-3.80
2022-12-18T21:39:22.571Z,-3.80
2022-12-18T21:42:09.889Z,-3.90
2022-12-18T21:44:38.868Z,-3.80
2022-12-18T21:47:22.611Z,-3.80
2022-12-18T21:49:53.803Z,-3.80
2022-12-18T21:52:29.839Z,-3.80
2022-12-18T21:55:06.164Z,-3.80
2022-12-18T21:57:36.511Z,-3.80
2022-12-18T22:00:05.212Z,-3.90
2022-12-18T22:02:32.650Z,-3.90
2022-12-18T22:05:00.071Z,-3.90
2022-12-18T22:07:29.170Z,-3.90
2022-12-18T22:09:56.391Z,-4.00
2022-12-18T22:12:43.125Z,-4.00
2022-12-18T22:15:13.888Z,-4.10
2022-12-18T22:17:48.517Z,-4.20
2022-12-18T22:20:16.182Z,-4.20
2022-12-18T22:22:43.293Z,-4.20
2022-12-18T22:25:11.250Z,-4.20
2022-12-18T22:27:38.627Z,-4.30
2022-12-18T22:30:06.573Z,-4.40
2022-12-18T22:32:35.737Z,-4.40
2022-12-18T22:35:08.376Z,-4.40
2022-12-18T22:37:37.020Z,-4.50
2022-12-18T22:40:07.372Z,-4.50
2022-12-18T22:42:35.073Z,-4.50
2022-12-18T22:45:02.260Z,-4.60
2022-12-18T22:47:30.648Z,-4.60
2022-12-18T22:49:58.549Z,-4.60
2022-12-18T22:52:25.942Z,-4.60
2022-12-18T22:54:54.345Z,-4.60
2022-12-18T22:57:22.746Z,-4.60
2022-12-18T22:59:52.887Z,-4.60
2022-12-18T23:02:20.306Z,-4.60
2022-12-18T23:04:47.969Z,-4.60
2022-12-18T23:07:15.995Z,-4.60
2022-12-18T23:09:43.543Z,-4.60
2022-12-18T23:12:18.915Z,-4.60
2022-12-18T23:14:47.401Z,-4.60
2022-12-18T23:17:14.621Z,-4.60
2022-12-18T23:19:48.566Z,-4.60
2022-12-18T23:22:16.443Z,-4.60
2022-12-18T23:24:43.697Z,-4.60
2022-12-18T23:27:11.736Z,-4.70
2022-12-18T23:29:39.786Z,-4.70
2022-12-18T23:32:07.527Z,-4.60
2022-12-18T23:34:34.686Z,-4.70
2022-12-18T23:37:03.928Z,-4.70
2022-12-18T23:39:31.219Z,-4.80
2022-12-18T23:41:59.419Z,-4.80
2022-12-18T23:44:26.837Z,-4.80
2022-12-18T23:46:54.284Z,-4.90
2022-12-18T23:49:21.569Z,-4.90
2022-12-18T23:51:49.312Z,-4.90
2022-12-18T23:54:16.648Z,-4.90
2022-12-18T23:56:43.975Z,-4.90
2022-12-18T23:59:11.161Z,-5.00
